Time;durP1;ratioP1;P1;durP2;ratioP2;P2;SDS_P1;SDS_P2;PMS_P1;PMS_P2;Temp;Humidity;BMP_temperature;BMP_pressure;BME280_temperature;BME280_humidity;BME280_pressure;Samples;Min_cycle;Max_cycle;Signal;HPM_P1;HPM_P2
2022/08/09 00:01:21;;;;;;;;;;;;;;;;;;4949580;28;20042;-58
2022/08/09 00:03:47;;;;;;;;;;;;;;;;;;4968100;28;20050;-58
2022/08/09 00:06:13;;;;;;;;;;;;;;;;;;4967075;28;20043;-58
2022/08/09 00:08:39;;;;;;;;;;;;;;;;;;4967776;28;20546;-59
2022/08/09 00:11:05;;;;;;;;;;;;;;;;;;4968065;28;19930;-58
2022/08/09 00:13:31;;;;;;;;;;;;;;;;;;4967441;28;19934;-58
2022/08/09 00:15:57;;;;;;;;;;;;;;;;;;4967610;28;19938;-58
2022/08/09 00:18:23;;;;;;;;;;;;;;;;;;4966624;28;20095;-58
2022/08/09 00:20:49;;;;;;;;;;;;;;;;;;4967036;28;19926;-58
2022/08/09 00:23:15;;;;;;;;;;;;;;;;;;4966700;28;19966;-58
2022/08/09 00:25:41;;;;;;;;;;;;;;;;;;4949906;28;19926;-58
2022/08/09 00:28:07;;;;;;;;;;;;;;;;;;4967767;28;19922;-58
2022/08/09 00:30:33;;;;;;;;;;;;;;;;;;4967562;28;20045;-58
2022/08/09 00:32:59;;;;;;;;;;;;;;;;;;4967471;28;19977;-58
2022/08/09 00:35:26;;;;;;;;;;;;;;;;;;4966207;28;19985;-58
2022/08/09 00:37:52;;;;;;;;;;;;;;;;;;4967320;28;19934;-58
2022/08/09 00:40:18;;;;;;;;;;;;;;;;;;4967081;28;19930;-58
2022/08/09 00:42:44;;;;;;;;;;;;;;;;;;4967038;28;20000;-58
2022/08/09 00:45:10;;;;;;;;;;;;;;;;;;4966952;28;20399;-58
2022/08/09 00:47:36;;;;;;;;;;;;;;;;;;4967180;28;19926;-58
2022/08/09 00:50:02;;;;;;;;;;;;;;;;;;4966553;28;19933;-59
2022/08/09 00:52:29;;;;;;;;;;;;;;;;;;4966595;28;20185;-58
2022/08/09 00:54:55;;;;;;;;;;;;;;;;;;4966933;28;19933;-59
2022/08/09 00:57:21;;;;;;;;;;;;;;;;;;4966676;28;19926;-58
2022/08/09 00:59:47;;;;;;;;;;;;;;;;;;4966267;28;19956;-58
2022/08/09 01:02:13;;;;;;;;;;;;;;;;;;4966316;28;19926;-58
2022/08/09 01:04:39;;;;;;;;;;;;;;;;;;4967075;28;20328;-59
2022/08/09 01:07:06;;;;;;;;;;;;;;;;;;4966435;28;19926;-58
2022/08/09 01:09:32;;;;;;;;;;;;;;;;;;4966217;28;19925;-58
2022/08/09 01:11:58;;;;;;;;;;;;;;;;;;4966345;28;19989;-58
2022/08/09 01:14:24;;;;;;;;;;;;;;;;;;4966427;28;19926;-58
2022/08/09 01:16:52;;;;;;;;;;;;;;;;;;4966126;28;21226;-58
2022/08/09 01:19:18;;;;;;;;;;;;;;;;;;4966183;28;19926;-58
2022/08/09 01:21:44;;;;;;;;;;;;;;;;;;4965769;28;20396;-58
2022/08/09 01:24:10;;;;;;;;;;;;;;;;;;4966430;28;19926;-59
2022/08/09 01:26:36;;;;;;;;;;;;;;;;;;4967057;28;19922;-59
2022/08/09 01:29:02;;;;;;;;;;;;;;;;;;4966331;28;20327;-58
2022/08/09 01:31:28;;;;;;;;;;;;;;;;;;4966163;28;20002;-58
2022/08/09 01:33:54;;;;;;;;;;;;;;;;;;4966174;28;20061;-58
2022/08/09 01:36:20;;;;;;;;;;;;;;;;;;4964936;28;20051;-58
2022/08/09 01:38:46;;;;;;;;;;;;;;;;;;4966173;28;19926;-60
2022/08/09 01:41:12;;;;;;;;;;;;;;;;;;4966380;28;20390;-59
2022/08/09 01:43:38;;;;;;;;;;;;;;;;;;4966398;28;19926;-58
2022/08/09 01:46:04;;;;;;;;;;;;;;;;;;4965936;28;19926;-58
2022/08/09 01:48:30;;;;;;;;;;;;;;;;;;4965966;28;19972;-58
2022/08/09 01:50:56;;;;;;;;;;;;;;;;;;4965731;28;19930;-58
2022/08/09 01:53:23;;;;;;;;;;;;;;;;;;4965900;28;20084;-58
2022/08/09 01:55:49;;;;;;;;;;;;;;;;;;4966060;28;19926;-58
2022/08/09 01:58:15;;;;;;;;;;;;;;;;;;4965510;28;19933;-58
2022/08/09 02:00:41;;;;;;;;;;;;;;;;;;4966052;28;19978;-58
2022/08/09 02:03:07;;;;;;;;;;;;;;;;;;4966237;28;19992;-58
2022/08/09 02:05:34;;;;;;;;;;;;;;;;;;4964954;28;19926;-58
2022/08/09 02:08:00;;;;;;;;;;;;;;;;;;4966344;28;19926;-58
2022/08/09 02:10:26;;;;;;;;;;;;;;;;;;4965084;28;19926;-59
2022/08/09 02:12:52;;;;;;;;;;;;;;;;;;4966131;28;20021;-58
2022/08/09 02:15:18;;;;;;;;;;;;;;;;;;4965490;28;19981;-59
2022/08/09 02:17:44;;;;;;;;;;;;;;;;;;4965897;28;19926;-59
2022/08/09 02:20:11;;;;;;;;;;;;;;;;;;4964463;28;19933;-59
2022/08/09 02:22:37;;;;;;;;;;;;;;;;;;4965887;28;19980;-58
2022/08/09 02:25:03;;;;;;;;;;;;;;;;;;4966179;28;20380;-58
2022/08/09 02:27:29;;;;;;;;;;;;;;;;;;4965487;28;19930;-59
2022/08/09 02:29:55;;;;;;;;;;;;;;;;;;4965819;28;20312;-59
2022/08/09 02:32:21;;;;;;;;;;;;;;;;;;4965491;28;20376;-59
2022/08/09 02:34:47;;;;;;;;;;;;;;;;;;4965040;28;19926;-59
2022/08/09 02:37:13;;;;;;;;;;;;;;;;;;4965301;28;19927;-59
2022/08/09 02:39:39;;;;;;;;;;;;;;;;;;4965760;28;19926;-60
2022/08/09 02:42:05;;;;;;;;;;;;;;;;;;4968359;28;19949;-58
2022/08/09 02:44:31;;;;;;;;;;;;;;;;;;4968568;28;20013;-59
2022/08/09 02:46:57;;;;;;;;;;;;;;;;;;4969403;28;20985;-59
2022/08/09 02:49:23;;;;;;;;;;;;;;;;;;4969207;28;19922;-59
2022/08/09 02:51:49;;;;;;;;;;;;;;;;;;4968753;28;19934;-59
2022/08/09 02:54:15;;;;;;;;;;;;;;;;;;4969126;28;20463;-59
2022/08/09 02:56:41;;;;;;;;;;;;;;;;;;4968893;28;19927;-59
2022/08/09 02:59:07;;;;;;;;;;;;;;;;;;4969768;28;19926;-59
2022/08/09 03:01:33;;;;;;;;;;;;;;;;;;4968547;28;19933;-59
2022/08/09 03:03:59;;;;;;;;;;;;;;;;;;4968927;28;19932;-59
2022/08/09 03:06:25;;;;;;;;;;;;;;;;;;4968329;28;19926;-59
2022/08/09 03:08:51;;;;;;;;;;;;;;;;;;4968757;28;20451;-59
2022/08/09 03:11:17;;;;;;;;;;;;;;;;;;4968742;28;20380;-58
2022/08/09 03:13:43;;;;;;;;;;;;;;;;;;4968858;28;20604;-59
2022/08/09 03:16:09;;;;;;;;;;;;;;;;;;4968665;28;19989;-59
2022/08/09 03:18:35;;;;;;;;;;;;;;;;;;4968379;28;19926;-58
2022/08/09 03:21:01;;;;;;;;;;;;;;;;;;4967908;28;19961;-58
2022/08/09 03:23:27;;;;;;;;;;;;;;;;;;4968647;28;19976;-58
2022/08/09 03:25:53;;;;;;;;;;;;;;;;;;4968894;28;20376;-58
2022/08/09 03:28:19;;;;;;;;;;;;;;;;;;4968405;28;19957;-59
2022/08/09 03:30:45;;;;;;;;;;;;;;;;;;4968367;28;19984;-58
2022/08/09 03:33:11;;;;;;;;;;;;;;;;;;4968368;28;19926;-58
2022/08/09 03:35:37;;;;;;;;;;;;;;;;;;4967792;28;19980;-58
2022/08/09 03:38:03;;;;;;;;;;;;;;;;;;4968718;28;20403;-58
2022/08/09 03:40:29;;;;;;;;;;;;;;;;;;4967704;28;19930;-59
2022/08/09 03:42:55;;;;;;;;;;;;;;;;;;4968403;28;19926;-58
2022/08/09 03:45:21;;;;;;;;;;;;;;;;;;4967979;28;20280;-59
2022/08/09 03:47:47;;;;;;;;;;;;;;;;;;4968046;28;19977;-59
2022/08/09 03:50:13;;;;;;;;;;;;;;;;;;4967655;28;19930;-59
2022/08/09 03:52:41;;;;;;;;;;;;;;;;;;4967065;28;19927;-59
2022/08/09 03:55:07;;;;;;;;;;;;;;;;;;4967648;28;19926;-58
2022/08/09 03:57:33;;;;;;;;;;;;;;;;;;4968042;28;19926;-59
2022/08/09 03:59:59;;;;;;;;;;;;;;;;;;4968085;28;20293;-58
2022/08/09 04:02:25;;;;;;;;;;;;;;;;;;4967567;28;19926;-59
2022/08/09 04:04:51;;;;;;;;;;;;;;;;;;4967320;28;19926;-59
2022/08/09 04:07:17;;;;;;;;;;;;;;;;;;4967319;28;19949;-59
2022/08/09 04:09:43;;;;;;;;;;;;;;;;;;4968164;28;19934;-59
2022/08/09 04:12:09;;;;;;;;;;;;;;;;;;4950551;28;20016;-60
2022/08/09 04:14:35;;;;;;;;;;;;;;;;;;4968196;28;20368;-59
2022/08/09 04:17:01;;;;;;;;;;;;;;;;;;4967698;28;19933;-59
2022/08/09 04:19:27;;;;;;;;;;;;;;;;;;4966296;28;19933;-59
2022/08/09 04:21:53;;;;;;;;;;;;;;;;;;4967553;28;19926;-59
2022/08/09 04:24:19;;;;;;;;;;;;;;;;;;4967660;28;19926;-58
2022/08/09 04:26:45;;;;;;;;;;;;;;;;;;4967535;28;20695;-59
2022/08/09 04:29:11;;;;;;;;;;;;;;;;;;4967228;28;19929;-59
2022/08/09 04:31:37;;;;;;;;;;;;;;;;;;4967081;28;19926;-59
2022/08/09 04:34:03;;;;;;;;;;;;;;;;;;4967740;28;19926;-59
2022/08/09 04:36:29;;;;;;;;;;;;;;;;;;4948676;28;19933;-59
2022/08/09 04:38:55;;;;;;;;;;;;;;;;;;4967285;28;19926;-59
2022/08/09 04:41:21;;;;;;;;;;;;;;;;;;4967030;28;19981;-58
2022/08/09 04:43:47;;;;;;;;;;;;;;;;;;4966914;28;19933;-59
2022/08/09 04:46:13;;;;;;;;;;;;;;;;;;4966687;28;20411;-59
2022/08/09 04:48:39;;;;;;;;;;;;;;;;;;4967341;28;19990;-60
2022/08/09 04:51:05;;;;;;;;;;;;;;;;;;4966935;28;19926;-58
2022/08/09 04:53:31;;;;;;;;;;;;;;;;;;4966148;28;20135;-58
2022/08/09 04:55:57;;;;;;;;;;;;;;;;;;4966855;28;19937;-58
2022/08/09 04:58:23;;;;;;;;;;;;;;;;;;4967154;28;20443;-59
2022/08/09 05:00:49;;;;;;;;;;;;;;;;;;4966795;28;19926;-58
2022/08/09 05:03:15;;;;;;;;;;;;;;;;;;4966485;28;19926;-59
2022/08/09 05:05:41;;;;;;;;;;;;;;;;;;4965511;28;20304;-59
2022/08/09 05:08:07;;;;;;;;;;;;;;;;;;4967277;28;19922;-59
2022/08/09 05:10:33;;;;;;;;;;;;;;;;;;4966379;28;19933;-59
2022/08/09 05:12:59;;;;;;;;;;;;;;;;;;4966690;28;20005;-59
2022/08/09 05:15:27;;;;;;;;;;;;;;;;;;4966408;28;19980;-59
2022/08/09 05:17:53;;;;;;;;;;;;;;;;;;4966168;28;20008;-59
2022/08/09 05:20:19;;;;;;;;;;;;;;;;;;4965469;28;20017;-60
2022/08/09 05:22:45;;;;;;;;;;;;;;;;;;4966904;28;19933;-59
2022/08/09 05:25:11;;;;;;;;;;;;;;;;;;4966419;28;20047;-60
2022/08/09 05:27:37;;;;;;;;;;;;;;;;;;4966467;28;20612;-59
2022/08/09 05:30:03;;;;;;;;;;;;;;;;;;4966017;28;19933;-59
2022/08/09 05:32:29;;;;;;;;;;;;;;;;;;4966269;28;19934;-59
2022/08/09 05:34:55;;;;;;;;;;;;;;;;;;4965377;28;19953;-59
2022/08/09 05:37:21;;;;;;;;;;;;;;;;;;4965984;28;20292;-59
2022/08/09 05:39:47;;;;;;;;;;;;;;;;;;4966054;28;19926;-59
2022/08/09 05:42:13;;;;;;;;;;;;;;;;;;4965656;28;19926;-59
2022/08/09 05:44:39;;;;;;;;;;;;;;;;;;4966281;28;19930;-62
2022/08/09 05:47:05;;;;;;;;;;;;;;;;;;4966492;28;19927;-60
2022/08/09 05:49:31;;;;;;;;;;;;;;;;;;4965082;28;20455;-60
2022/08/09 05:51:57;;;;;;;;;;;;;;;;;;4965421;28;19941;-60
2022/08/09 05:54:23;;;;;;;;;;;;;;;;;;4965576;28;19981;-61
2022/08/09 05:56:49;;;;;;;;;;;;;;;;;;4965771;28;19926;-60
2022/08/09 05:59:15;;;;;;;;;;;;;;;;;;4965902;28;20017;-60
2022/08/09 06:01:41;;;;;;;;;;;;;;;;;;4965789;28;20013;-62
2022/08/09 06:04:07;;;;;;;;;;;;;;;;;;4965028;28;20404;-62
2022/08/09 06:06:33;;;;;;;;;;;;;;;;;;4965755;28;19929;-65
2022/08/09 06:08:59;;;;;;;;;;;;;;;;;;4965876;28;19937;-60
2022/08/09 06:11:25;;;;;;;;;;;;;;;;;;4965098;28;19926;-59
2022/08/09 06:13:51;;;;;;;;;;;;;;;;;;4965077;28;19980;-58
2022/08/09 06:16:17;;;;;;;;;;;;;;;;;;4945405;29;20426;-59
2022/08/09 06:18:43;;;;;;;;;;;;;;;;;;4946167;29;19927;-58
2022/08/09 06:21:09;;;;;;;;;;;;;;;;;;4945450;29;19927;-59
2022/08/09 06:23:35;;;;;;;;;;;;;;;;;;4946098;29;19949;-58
2022/08/09 06:26:01;;;;;;;;;;;;;;;;;;4945140;29;19926;-59
2022/08/09 06:28:27;;;;;;;;;;;;;;;;;;4945569;29;20018;-59
2022/08/09 06:30:53;;;;;;;;;;;;;;;;;;4946152;29;20416;-59
2022/08/09 06:33:19;;;;;;;;;;;;;;;;;;4946193;29;20360;-58
2022/08/09 06:35:45;;;;;;;;;;;;;;;;;;4945228;29;19974;-59
2022/08/09 06:38:11;;;;;;;;;;;;;;;;;;4946022;29;19957;-59
2022/08/09 06:40:37;;;;;;;;;;;;;;;;;;4945903;29;19926;-59
2022/08/09 06:43:03;;;;;;;;;;;;;;;;;;4946712;29;19927;-59
2022/08/09 06:45:29;;;;;;;;;;;;;;;;;;4946017;29;19931;-59
2022/08/09 06:47:55;;;;;;;;;;;;;;;;;;4945960;29;20018;-58
2022/08/09 06:50:21;;;;;;;;;;;;;;;;;;4944561;29;20013;-59
2022/08/09 06:52:47;;;;;;;;;;;;;;;;;;4945871;29;19922;-58
2022/08/09 06:55:13;;;;;;;;;;;;;;;;;;4945857;29;19932;-59
2022/08/09 06:57:39;;;;;;;;;;;;;;;;;;4946011;29;19926;-60
2022/08/09 07:00:06;;;;;;;;;;;;;;;;;;4946405;29;19935;-59
2022/08/09 07:02:32;;;;;;;;;;;;;;;;;;4945629;29;19934;-59
2022/08/09 07:04:58;;;;;;;;;;;;;;;;;;4945496;29;19995;-56
2022/08/09 07:07:24;;;;;;;;;;;;;;;;;;4945617;29;19927;-56
2022/08/09 07:09:50;;;;;;;;;;;;;;;;;;4953917;28;20347;-56
2022/08/09 07:12:16;;;;;;;;;;;;;;;;;;4965354;28;20677;-56
2022/08/09 07:14:42;;;;;;;;;;;;;;;;;;4972258;28;19925;-57
2022/08/09 07:17:08;;;;;;;;;;;;;;;;;;4984856;28;19926;-56
2022/08/09 07:19:34;;;;;;;;;;;;;;;;;;4966474;28;19926;-58
2022/08/09 07:22:00;;;;;;;;;;;;;;;;;;4947579;28;20074;-58
2022/08/09 07:24:26;;;;;;;;;;;;;;;;;;4964765;28;19927;-58
2022/08/09 07:26:52;;;;;;;;;;;;;;;;;;4964868;28;19937;-58
2022/08/09 07:29:18;;;;;;;;;;;;;;;;;;4968299;28;19926;-58
2022/08/09 07:31:44;;;;;;;;;;;;;;;;;;4967707;28;19926;-59
2022/08/09 07:34:10;;;;;;;;;;;;;;;;;;4967328;28;19927;-58
2022/08/09 07:36:36;;;;;;;;;;;;;;;;;;4968159;28;20374;-58
2022/08/09 07:39:03;;;;;;;;;;;;;;;;;;4949448;28;20406;-58
2022/08/09 07:41:30;;;;;;;;;;;;;;;;;;4967908;28;19937;-58
2022/08/09 07:43:56;;;;;;;;;;;;;;;;;;4968212;28;19926;-58
2022/08/09 07:46:22;;;;;;;;;;;;;;;;;;4967626;28;19930;-58
2022/08/09 07:48:48;;;;;;;;;;;;;;;;;;4967770;28;19926;-60
2022/08/09 07:51:14;;;;;;;;;;;;;;;;;;4967666;28;19927;-61
2022/08/09 07:53:40;;;;;;;;;;;;;;;;;;4967867;28;20048;-60
2022/08/09 07:56:06;;;;;;;;;;;;;;;;;;4968450;28;19930;-59
2022/08/09 07:58:32;;;;;;;;;;;;;;;;;;4968055;28;20008;-59
2022/08/09 08:00:58;;;;;;;;;;;;;;;;;;4966921;28;20736;-59
2022/08/09 08:03:24;;;;;;;;;;;;;;;;;;4967658;28;20017;-60
2022/08/09 08:05:50;;;;;;;;;;;;;;;;;;4967238;28;19929;-60
2022/08/09 08:08:16;;;;;;;;;;;;;;;;;;4967808;28;19969;-60
2022/08/09 08:10:42;;;;;;;;;;;;;;;;;;4967958;28;19969;-59
2022/08/09 08:13:08;;;;;;;;;;;;;;;;;;4967991;28;20336;-59
2022/08/09 08:15:35;;;;;;;;;;;;;;;;;;4953694;28;19926;-59
2022/08/09 08:18:01;;;;;;;;;;;;;;;;;;4947666;29;19930;-59
2022/08/09 08:20:27;;;;;;;;;;;;;;;;;;4947308;29;19931;-59
2022/08/09 08:22:53;;;;;;;;;;;;;;;;;;4948359;29;19927;-59
2022/08/09 08:25:19;;;;;;;;;;;;;;;;;;4947761;29;19986;-59
2022/08/09 08:27:45;;;;;;;;;;;;;;;;;;4948209;29;19994;-59
2022/08/09 08:30:12;;;;;;;;;;;;;;;;;;4947904;29;20311;-59
2022/08/09 08:32:38;;;;;;;;;;;;;;;;;;4948363;29;19927;-59
2022/08/09 08:35:04;;;;;;;;;;;;;;;;;;4947097;29;19927;-59
2022/08/09 08:37:30;;;;;;;;;;;;;;;;;;4947250;29;19929;-59
2022/08/09 08:39:56;;;;;;;;;;;;;;;;;;4947027;28;19930;-59
2022/08/09 08:42:22;;;;;;;;;;;;;;;;;;4947815;29;19927;-59
2022/08/09 08:44:48;;;;;;;;;;;;;;;;;;4947682;29;19926;-59
2022/08/09 08:47:15;;;;;;;;;;;;;;;;;;4947232;29;19933;-59
2022/08/09 08:49:41;;;;;;;;;;;;;;;;;;4946377;29;20270;-59
2022/08/09 08:52:07;;;;;;;;;;;;;;;;;;4948394;29;19930;-59
2022/08/09 08:54:33;;;;;;;;;;;;;;;;;;4947265;29;19983;-59
2022/08/09 08:56:59;;;;;;;;;;;;;;;;;;4947822;29;20173;-59
2022/08/09 08:59:25;;;;;;;;;;;;;;;;;;4946653;29;19926;-59
2022/08/09 09:01:51;;;;;;;;;;;;;;;;;;4947434;29;20577;-59
2022/08/09 09:04:17;;;;;;;;;;;;;;;;;;4946176;29;19962;-59
2022/08/09 09:06:43;;;;;;;;;;;;;;;;;;4947508;29;19927;-59
2022/08/09 09:09:11;;;;;;;;;;;;;;;;;;4947284;29;20254;-60
2022/08/09 09:11:37;;;;;;;;;;;;;;;;;;4947284;29;19950;-59
2022/08/09 09:14:03;;;;;;;;;;;;;;;;;;4947095;28;20399;-59
2022/08/09 09:16:29;;;;;;;;;;;;;;;;;;4946853;29;20285;-59
2022/08/09 09:18:55;;;;;;;;;;;;;;;;;;4946211;29;19937;-59
2022/08/09 09:21:21;;;;;;;;;;;;;;;;;;4946996;29;19930;-59
2022/08/09 09:23:48;;;;;;;;;;;;;;;;;;4946531;29;19935;-59
2022/08/09 09:26:14;;;;;;;;;;;;;;;;;;4946927;29;19933;-59
2022/08/09 09:28:40;;;;;;;;;;;;;;;;;;4947018;29;20009;-59
2022/08/09 09:31:06;;;;;;;;;;;;;;;;;;4947241;29;20059;-59
2022/08/09 09:33:33;;;;;;;;;;;;;;;;;;4945558;29;20264;-60
2022/08/09 09:35:59;;;;;;;;;;;;;;;;;;4946786;29;19997;-60
2022/08/09 09:38:25;;;;;;;;;;;;;;;;;;4946468;29;19926;-61
2022/08/09 09:40:51;;;;;;;;;;;;;;;;;;4946515;29;20344;-61
2022/08/09 09:43:18;;;;;;;;;;;;;;;;;;4946473;29;20472;-61
2022/08/09 09:45:44;;;;;;;;;;;;;;;;;;4929224;29;20551;-60
2022/08/09 09:48:10;;;;;;;;;;;;;;;;;;4946361;29;19926;-61
2022/08/09 09:50:36;;;;;;;;;;;;;;;;;;4945711;28;19927;-61
2022/08/09 09:53:02;;;;;;;;;;;;;;;;;;4946611;29;19926;-61
2022/08/09 09:55:28;;;;;;;;;;;;;;;;;;4946443;29;19927;-60
2022/08/09 09:57:54;;;;;;;;;;;;;;;;;;4946188;29;19930;-59
2022/08/09 10:00:20;;;;;;;;;;;;;;;;;;4946129;29;20505;-60
2022/08/09 10:02:46;;;;;;;;;;;;;;;;;;4946717;29;19926;-58
2022/08/09 10:05:12;;;;;;;;;;;;;;;;;;4945623;29;19934;-58
2022/08/09 10:07:38;;;;;;;;;;;;;;;;;;4947079;29;19927;-58
2022/08/09 10:10:04;;;;;;;;;;;;;;;;;;4946063;29;19927;-57
2022/08/09 10:12:31;;;;;;;;;;;;;;;;;;4946378;29;20011;-58
2022/08/09 10:14:57;;;;;;;;;;;;;;;;;;4938202;28;19934;-58
2022/08/09 10:17:23;;;;;;;;;;;;;;;;;;4965494;28;19982;-58
2022/08/09 10:19:49;;;;;;;;;;;;;;;;;;4964834;28;19926;-58
2022/08/09 10:22:15;;;;;;;;;;;;;;;;;;4965081;28;19926;-57
2022/08/09 10:24:41;;;;;;;;;;;;;;;;;;4965294;28;20020;-58
2022/08/09 10:27:07;;;;;;;;;;;;;;;;;;4965898;28;20494;-59
2022/08/09 10:29:34;;;;;;;;;;;;;;;;;;4965113;28;19930;-59
2022/08/09 10:32:00;;;;;;;;;;;;;;;;;;4964974;28;19926;-59
2022/08/09 10:34:27;;;;;;;;;;;;;;;;;;4963779;28;19927;-59
2022/08/09 10:36:55;;;;;;;;;;;;;;;;;;4965168;28;19926;-59
2022/08/09 10:39:22;;;;;;;;;;;;;;;;;;4965190;28;19934;-59
2022/08/09 10:41:48;;;;;;;;;;;;;;;;;;4965418;28;20545;-60
2022/08/09 10:44:14;;;;;;;;;;;;;;;;;;4964606;28;19926;-59
2022/08/09 10:46:40;;;;;;;;;;;;;;;;;;4965134;28;19933;-59
2022/08/09 10:49:06;;;;;;;;;;;;;;;;;;4964981;28;19934;-59
2022/08/09 10:51:32;;;;;;;;;;;;;;;;;;4964984;28;19922;-59
2022/08/09 10:53:58;;;;;;;;;;;;;;;;;;4965283;28;19978;-58
2022/08/09 10:56:24;;;;;;;;;;;;;;;;;;4964329;28;19972;-58
2022/08/09 10:58:50;;;;;;;;;;;;;;;;;;4965124;28;20005;-59
2022/08/09 11:01:16;;;;;;;;;;;;;;;;;;4964476;28;19933;-59
2022/08/09 11:03:42;;;;;;;;;;;;;;;;;;4967589;28;19926;-59
2022/08/09 11:06:08;;;;;;;;;;;;;;;;;;4969104;28;19930;-59
2022/08/09 11:08:34;;;;;;;;;;;;;;;;;;4968808;28;20275;-59
2022/08/09 11:11:00;;;;;;;;;;;;;;;;;;4968665;28;19922;-59
2022/08/09 11:13:26;;;;;;;;;;;;;;;;;;4968425;28;19926;-59
2022/08/09 11:15:52;;;;;;;;;;;;;;;;;;4968614;28;19985;-59
2022/08/09 11:18:18;;;;;;;;;;;;;;;;;;4967681;28;19932;-59
2022/08/09 11:20:46;;;;;;;;;;;;;;;;;;4968221;28;20034;-59
2022/08/09 11:23:12;;;;;;;;;;;;;;;;;;4968371;28;19974;-59
2022/08/09 11:25:38;;;;;;;;;;;;;;;;;;4969137;28;19926;-59
2022/08/09 11:28:04;;;;;;;;;;;;;;;;;;4951135;28;19926;-59
2022/08/09 11:30:30;;;;;;;;;;;;;;;;;;4968054;28;20024;-59
2022/08/09 11:32:56;;;;;;;;;;;;;;;;;;4967982;28;19926;-59
2022/08/09 11:35:23;;;;;;;;;;;;;;;;;;4967129;28;19926;-59
2022/08/09 11:37:49;;;;;;;;;;;;;;;;;;4968192;28;19967;-60
2022/08/09 11:40:15;;;;;;;;;;;;;;;;;;4967683;28;20447;-60
2022/08/09 11:42:42;;;;;;;;;;;;;;;;;;4967586;28;19926;-60
2022/08/09 11:45:08;;;;;;;;;;;;;;;;;;4968418;28;19930;-60
2022/08/09 11:47:34;;;;;;;;;;;;;;;;;;4968057;28;19933;-60
2022/08/09 11:50:01;;;;;;;;;;;;;;;;;;4967300;28;19934;-60
2022/08/09 11:52:27;;;;;;;;;;;;;;;;;;4968040;28;20024;-60
2022/08/09 11:54:53;;;;;;;;;;;;;;;;;;4967487;28;20168;-60
2022/08/09 11:57:19;;;;;;;;;;;;;;;;;;4967938;28;20410;-60
2022/08/09 11:59:45;;;;;;;;;;;;;;;;;;4967393;28;19926;-60
2022/08/09 12:02:11;;;;;;;;;;;;;;;;;;4967905;28;19926;-60
2022/08/09 12:04:37;;;;;;;;;;;;;;;;;;4967423;28;20656;-60
2022/08/09 12:07:03;;;;;;;;;;;;;;;;;;4967557;28;19926;-60
2022/08/09 12:09:30;;;;;;;;;;;;;;;;;;4967294;28;19930;-60
2022/08/09 12:11:56;;;;;;;;;;;;;;;;;;4967679;28;19918;-60
2022/08/09 12:14:22;;;;;;;;;;;;;;;;;;4966345;28;19933;-60
2022/08/09 12:16:48;;;;;;;;;;;;;;;;;;4967553;28;19925;-60
2022/08/09 12:19:14;;;;;;;;;;;;;;;;;;4965901;28;20243;-60
2022/08/09 12:21:40;;;;;;;;;;;;;;;;;;4967882;28;20435;-60
2022/08/09 12:24:06;;;;;;;;;;;;;;;;;;4967743;28;19926;-60
2022/08/09 12:26:32;;;;;;;;;;;;;;;;;;4967748;28;19926;-59
2022/08/09 12:28:58;;;;;;;;;;;;;;;;;;4967216;28;20017;-59
2022/08/09 12:31:25;;;;;;;;;;;;;;;;;;4967211;28;20012;-60
2022/08/09 12:33:51;;;;;;;;;;;;;;;;;;4966569;28;19926;-60
2022/08/09 12:36:17;;;;;;;;;;;;;;;;;;4966695;28;19926;-60
2022/08/09 12:38:43;;;;;;;;;;;;;;;;;;4967223;28;19973;-60
2022/08/09 12:41:09;;;;;;;;;;;;;;;;;;4966259;28;19926;-61
2022/08/09 12:43:35;;;;;;;;;;;;;;;;;;4967581;28;19973;-60
2022/08/09 12:46:01;;;;;;;;;;;;;;;;;;4967305;28;19930;-60
2022/08/09 12:48:27;;;;;;;;;;;;;;;;;;4965996;28;19949;-60
2022/08/09 12:50:53;;;;;;;;;;;;;;;;;;4967170;28;19926;-60
2022/08/09 12:53:19;;;;;;;;;;;;;;;;;;4966127;28;20021;-60
2022/08/09 12:55:45;;;;;;;;;;;;;;;;;;4967209;28;20028;-60
2022/08/09 12:58:12;;;;;;;;;;;;;;;;;;4966642;28;19996;-60
2022/08/09 13:00:38;;;;;;;;;;;;;;;;;;4966968;28;19926;-60
2022/08/09 13:03:05;;;;;;;;;;;;;;;;;;4966402;28;19930;-60
2022/08/09 13:05:31;;;;;;;;;;;;;;;;;;4965536;28;19926;-60
2022/08/09 13:07:57;;;;;;;;;;;;;;;;;;4966835;28;19980;-60
2022/08/09 13:10:23;;;;;;;;;;;;;;;;;;4966071;28;19927;-60
2022/08/09 13:12:49;;;;;;;;;;;;;;;;;;4966559;28;19922;-60
2022/08/09 13:15:15;;;;;;;;;;;;;;;;;;4966064;28;19934;-60
2022/08/09 13:17:41;;;;;;;;;;;;;;;;;;4966443;28;19926;-60
2022/08/09 13:20:07;;;;;;;;;;;;;;;;;;4965825;28;19926;-60
2022/08/09 13:22:33;;;;;;;;;;;;;;;;;;4966081;28;20012;-60
2022/08/09 13:24:59;;;;;;;;;;;;;;;;;;4965927;28;20047;-60
2022/08/09 13:27:25;;;;;;;;;;;;;;;;;;4965663;28;19926;-60
2022/08/09 13:29:52;;;;;;;;;;;;;;;;;;4966303;28;19926;-60
2022/08/09 13:32:18;;;;;;;;;;;;;;;;;;4966104;28;20456;-60
2022/08/09 13:34:44;;;;;;;;;;;;;;;;;;4965375;28;19982;-60
2022/08/09 13:37:10;;;;;;;;;;;;;;;;;;4965778;28;19926;-60
2022/08/09 13:39:37;;;;;;;;;;;;;;;;;;4965551;28;19929;-60
2022/08/09 13:42:03;;;;;;;;;;;;;;;;;;4966574;28;20381;-60
2022/08/09 13:44:30;;;;;;;;;;;;;;;;;;4965782;28;20395;-60
2022/08/09 13:46:56;;;;;;;;;;;;;;;;;;4966026;28;20024;-60
2022/08/09 13:49:22;;;;;;;;;;;;;;;;;;4964885;28;19933;-60
2022/08/09 13:51:48;;;;;;;;;;;;;;;;;;4965185;28;19930;-61
2022/08/09 13:54:14;;;;;;;;;;;;;;;;;;4965834;28;19933;-61
2022/08/09 13:56:40;;;;;;;;;;;;;;;;;;4966064;28;19918;-61
2022/08/09 13:59:06;;;;;;;;;;;;;;;;;;4966110;28;20593;-61
2022/08/09 14:01:32;;;;;;;;;;;;;;;;;;4965521;28;19930;-61
2022/08/09 14:03:58;;;;;;;;;;;;;;;;;;4964696;28;19926;-61
2022/08/09 14:06:24;;;;;;;;;;;;;;;;;;4965357;28;20373;-60
2022/08/09 14:08:50;;;;;;;;;;;;;;;;;;4965846;28;19926;-61
2022/08/09 14:11:16;;;;;;;;;;;;;;;;;;4965575;28;19933;-61
2022/08/09 14:13:42;;;;;;;;;;;;;;;;;;4965361;28;19926;-61
2022/08/09 14:16:08;;;;;;;;;;;;;;;;;;4965548;28;20369;-61
2022/08/09 14:18:34;;;;;;;;;;;;;;;;;;4965056;28;19969;-61
2022/08/09 14:21:00;;;;;;;;;;;;;;;;;;4965279;28;19926;-60
2022/08/09 14:23:26;;;;;;;;;;;;;;;;;;4965546;28;19926;-61
2022/08/09 14:25:52;;;;;;;;;;;;;;;;;;4965005;28;19926;-61
2022/08/09 14:28:18;;;;;;;;;;;;;;;;;;4965678;28;19926;-61
2022/08/09 14:30:44;;;;;;;;;;;;;;;;;;4965419;28;19957;-61
2022/08/09 14:33:10;;;;;;;;;;;;;;;;;;4964530;28;20305;-59
2022/08/09 14:35:36;;;;;;;;;;;;;;;;;;4965323;28;19926;-58
2022/08/09 14:38:02;;;;;;;;;;;;;;;;;;4967387;28;19933;-58
2022/08/09 14:40:28;;;;;;;;;;;;;;;;;;4969211;28;19933;-59
2022/08/09 14:42:54;;;;;;;;;;;;;;;;;;4969031;28;19926;-59
2022/08/09 14:45:20;;;;;;;;;;;;;;;;;;4969019;28;20355;-58
2022/08/09 14:47:46;;;;;;;;;;;;;;;;;;4968675;28;20017;-59
2022/08/09 14:50:12;;;;;;;;;;;;;;;;;;4968216;28;20109;-59
2022/08/09 14:52:38;;;;;;;;;;;;;;;;;;4969612;28;19933;-59
2022/08/09 14:55:05;;;;;;;;;;;;;;;;;;4969382;28;19926;-59
2022/08/09 14:57:31;;;;;;;;;;;;;;;;;;4968847;28;19927;-58
2022/08/09 14:59:57;;;;;;;;;;;;;;;;;;4968664;28;19933;-59
2022/08/09 15:02:23;;;;;;;;;;;;;;;;;;4968523;28;19926;-59
2022/08/09 15:04:49;;;;;;;;;;;;;;;;;;4968249;28;19933;-59
2022/08/09 15:07:15;;;;;;;;;;;;;;;;;;4968841;28;19933;-58
2022/08/09 15:09:41;;;;;;;;;;;;;;;;;;4968770;28;20450;-59
2022/08/09 15:12:07;;;;;;;;;;;;;;;;;;4968824;28;20036;-59
2022/08/09 15:14:33;;;;;;;;;;;;;;;;;;4968658;28;20713;-60
2022/08/09 15:16:59;;;;;;;;;;;;;;;;;;4968529;28;19930;-59
2022/08/09 15:19:25;;;;;;;;;;;;;;;;;;4967368;28;19961;-60
2022/08/09 15:21:51;;;;;;;;;;;;;;;;;;4969010;28;19930;-60
2022/08/09 15:24:17;;;;;;;;;;;;;;;;;;4967837;28;20003;-60
2022/08/09 15:26:44;;;;;;;;;;;;;;;;;;4968755;28;19926;-61
2022/08/09 15:29:10;;;;;;;;;;;;;;;;;;4968213;28;19927;-61
2022/08/09 15:31:36;;;;;;;;;;;;;;;;;;4968520;28;19926;-60
2022/08/09 15:34:02;;;;;;;;;;;;;;;;;;4967715;28;20016;-59
2022/08/09 15:36:28;;;;;;;;;;;;;;;;;;4967439;28;20020;-60
2022/08/09 15:38:54;;;;;;;;;;;;;;;;;;4968375;28;19995;-60
2022/08/09 15:41:20;;;;;;;;;;;;;;;;;;4967753;28;19926;-61
2022/08/09 15:43:46;;;;;;;;;;;;;;;;;;4968347;28;20010;-60
2022/08/09 15:46:12;;;;;;;;;;;;;;;;;;4950349;28;19989;-61
2022/08/09 15:48:38;;;;;;;;;;;;;;;;;;4967251;28;19926;-60
2022/08/09 15:51:05;;;;;;;;;;;;;;;;;;4969434;28;19974;-61
2022/08/09 15:53:31;;;;;;;;;;;;;;;;;;4967738;28;19929;-61
2022/08/09 15:55:57;;;;;;;;;;;;;;;;;;4967954;28;19926;-61
2022/08/09 15:58:23;;;;;;;;;;;;;;;;;;4967430;28;19926;-61
2022/08/09 16:00:49;;;;;;;;;;;;;;;;;;4967356;28;19926;-59
2022/08/09 16:03:15;;;;;;;;;;;;;;;;;;4966931;28;21170;-60
2022/08/09 16:05:41;;;;;;;;;;;;;;;;;;4967994;28;20034;-60
2022/08/09 16:08:07;;;;;;;;;;;;;;;;;;4968163;28;19933;-59
2022/08/09 16:10:33;;;;;;;;;;;;;;;;;;4967428;28;20296;-60
2022/08/09 16:12:59;;;;;;;;;;;;;;;;;;4966828;28;19952;-60
2022/08/09 16:15:25;;;;;;;;;;;;;;;;;;4954253;28;20365;-61
2022/08/09 16:17:51;;;;;;;;;;;;;;;;;;4947073;29;19927;-61
2022/08/09 16:20:17;;;;;;;;;;;;;;;;;;4948238;29;20368;-60
2022/08/09 16:22:43;;;;;;;;;;;;;;;;;;4948063;29;20059;-60
2022/08/09 16:25:09;;;;;;;;;;;;;;;;;;4947626;29;20099;-60
2022/08/09 16:27:36;;;;;;;;;;;;;;;;;;4948310;29;19954;-60
2022/08/09 16:30:02;;;;;;;;;;;;;;;;;;4947571;29;19922;-60
2022/08/09 16:35:12;;;;;;;;;;;;;;;;;;4947470;29;19933;-60
2022/08/09 16:37:38;;;;;;;;;;;;;;;;;;4948421;29;19927;-60
2022/08/09 16:40:04;;;;;;;;;;;;;;;;;;4930921;29;19927;-60